Dunlay, Texas
Current Conditions -  °F | °C
As of 7:51 PM on Friday 28 Nov 2014 (Local Time) from KHDO Reporting Station
Clear Clear  
Wind Chill: 57°   Ceiling: Unl
Heat Index: 57°   Visibility: 10mi
Dew Point: 45°   Wind: 0mph
Humidity: 64%   Direction: NA
Pressure: 30.14"   Gusts: NA
Location:  29.4252°N, 99.1005°W
Report Text: KHDO 290151Z AUTO 00000KT 10SM CLR 14/07 A3014 RMK AO2 SLP199 T01390072
Loading
Personal Weather Stations






























Interactive Weather Map New forecast layout! Learn more

10-Day Weather Forecast

Advertisements
Track Severe Weather on mobile